createdAt,value
2022-12-23T00:00:10.000Z,189.32
2022-12-23T00:02:36.852Z,18.15
2022-12-23T00:05:04.893Z,1.00
2022-12-23T00:07:31.772Z,0.73
2022-12-23T00:09:59.172Z,0.93
2022-12-23T00:12:44.482Z,0.93
2022-12-23T00:15:12.026Z,0.80
2022-12-23T00:17:43.063Z,0.93
2022-12-23T00:20:12.983Z,4.15
2022-12-23T00:22:59.069Z,0.77
2022-12-23T00:25:41.354Z,0.93
2022-12-23T00:28:12.290Z,12.05
2022-12-23T00:30:49.468Z,1.50
2022-12-23T00:33:18.599Z,0.80
2022-12-23T00:35:45.870Z,0.80
2022-12-23T00:38:12.602Z,2.03
2022-12-23T00:40:57.611Z,0.70
2022-12-23T00:43:24.208Z,1.65
2022-12-23T00:45:50.835Z,0.85
2022-12-23T00:48:36.045Z,0.85
2022-12-23T00:51:02.691Z,0.90
2022-12-23T00:53:29.464Z,1.10
2022-12-23T00:55:56.020Z,1.55
2022-12-23T00:58:22.864Z,1.10
2022-12-23T01:01:08.020Z,1.63
2022-12-23T01:03:53.083Z,1.25
2022-12-23T01:06:19.691Z,0.65
2022-12-23T01:08:46.288Z,2.15
2022-12-23T01:11:13.207Z,0.85
2022-12-23T01:13:40.215Z,0.75
2022-12-23T01:16:15.375Z,0.88
2022-12-23T01:18:43.589Z,3.65
2022-12-23T01:21:10.938Z,1.42
2022-12-23T01:23:37.806Z,1.00
2022-12-23T01:26:06.953Z,1.13
2022-12-23T01:28:34.264Z,2.17
2022-12-23T01:31:02.542Z,2.08
2022-12-23T01:33:29.555Z,2.10
2022-12-23T01:36:07.808Z,6.80
2022-12-23T01:38:35.012Z,3.13
2022-12-23T01:41:01.576Z,4.75
2022-12-23T01:43:48.372Z,3.28
2022-12-23T01:46:15.586Z,2.10
2022-12-23T01:48:45.105Z,1.83
2022-12-23T01:51:30.359Z,1.92
2022-12-23T01:54:01.741Z,2.58
2022-12-23T01:56:37.257Z,5.30
2022-12-23T01:59:32.143Z,1.58
2022-12-23T02:02:17.452Z,3.17
2022-12-23T02:04:44.320Z,2.10
2022-12-23T02:18:53.304Z,8.05
2022-12-23T02:21:31.274Z,12.18
2022-12-23T02:24:11.336Z,4.30
2022-12-23T02:27:19.121Z,9.15
2022-12-23T02:30:07.704Z,2.60
2022-12-23T02:32:49.884Z,1.65
2022-12-23T02:35:28.278Z,0.50
2022-12-23T02:38:08.116Z,0.75
2022-12-23T02:40:52.697Z,3.83
2022-12-23T02:43:31.605Z,2.25
2022-12-23T02:46:07.408Z,18.23
2022-12-23T02:49:01.096Z,20.70
2022-12-23T02:51:33.600Z,26.80
2022-12-23T02:54:04.175Z,24.83
2022-12-23T02:56:34.072Z,2.70
2022-12-23T02:59:05.566Z,11.55
2022-12-23T03:01:33.704Z,0.70
2022-12-23T03:04:00.591Z,1.13
2022-12-23T03:06:32.128Z,26.50
2022-12-23T03:09:00.550Z,30.80
2022-12-23T03:11:50.977Z,55.85
2022-12-23T03:14:45.677Z,49.92
2022-12-23T03:17:21.183Z,38.33
2022-12-23T03:19:57.960Z,32.72
2022-12-23T03:22:42.888Z,15.60
2022-12-23T03:25:28.919Z,46.90
2022-12-23T03:28:00.138Z,11.70
2022-12-23T03:30:29.500Z,32.72
2022-12-23T03:33:01.836Z,30.25
2022-12-23T03:35:37.947Z,36.92
2022-12-23T03:38:07.662Z,28.63
2022-12-23T03:40:38.770Z,61.50
2022-12-23T03:43:11.557Z,1.00
2022-12-23T03:45:43.362Z,1.00
2022-12-23T03:48:23.957Z,1.02
2022-12-23T03:50:58.859Z,1.05
2022-12-23T03:54:00.029Z,2.38
2022-12-23T03:56:33.003Z,1.35
2022-12-23T03:59:03.619Z,1.10
2022-12-23T04:02:08.899Z,1.73
2022-12-23T04:04:54.173Z,1.17
2022-12-23T04:07:30.287Z,12.68
2022-12-23T04:09:58.436Z,16.83
2022-12-23T04:12:26.686Z,21.00
2022-12-23T04:14:53.590Z,4.65
2022-12-23T04:17:21.768Z,1.45
2022-12-23T04:19:48.419Z,3.58
2022-12-23T04:22:16.249Z,1.95
2022-12-23T04:24:43.305Z,1.20
2022-12-23T04:27:15.070Z,1.55
2022-12-23T04:29:43.282Z,1.55
2022-12-23T04:32:10.627Z,1.80
2022-12-23T04:34:37.220Z,1.98
2022-12-23T04:37:03.867Z,2.63
2022-12-23T04:39:30.453Z,3.03
2022-12-23T04:41:57.046Z,2.45
2022-12-23T04:44:23.643Z,5.82
2022-12-23T04:46:50.339Z,3.72
2022-12-23T04:49:16.860Z,2.90
2022-12-23T04:51:43.399Z,2.00
2022-12-23T04:54:10.129Z,3.15
2022-12-23T04:56:36.695Z,1.75
2022-12-23T04:59:04.439Z,2.63
2022-12-23T05:01:31.188Z,2.67
2022-12-23T05:03:57.842Z,2.45
2022-12-23T05:06:24.509Z,1.65
2022-12-23T05:08:51.131Z,1.85
2022-12-23T05:11:17.750Z,2.60
2022-12-23T05:13:44.360Z,6.43
2022-12-23T05:16:11.029Z,4.70
2022-12-23T05:18:37.596Z,8.40
2022-12-23T05:21:04.470Z,5.40
2022-12-23T05:23:31.032Z,13.05
2022-12-23T05:25:57.616Z,3.33
2022-12-23T05:28:24.354Z,5.05
2022-12-23T05:30:58.192Z,5.82
2022-12-23T05:33:24.793Z,13.32
2022-12-23T05:35:51.388Z,14.35
2022-12-23T05:38:18.098Z,11.80
2022-12-23T05:40:44.755Z,30.42
2022-12-23T05:43:11.417Z,6.75
2022-12-23T05:45:38.120Z,4.63
2022-12-23T05:48:04.895Z,6.45
2022-12-23T05:50:38.738Z,4.15
2022-12-23T05:53:06.110Z,5.85
2022-12-23T05:55:32.710Z,6.65
2022-12-23T05:57:59.513Z,6.40
2022-12-23T06:00:27.165Z,5.85
2022-12-23T06:02:54.519Z,6.13
2022-12-23T06:05:21.989Z,6.78
2022-12-23T06:07:48.570Z,5.55
2022-12-23T06:10:15.137Z,108.05
2022-12-23T06:12:41.660Z,22.90
2022-12-23T06:15:08.768Z,14.98
2022-12-23T06:17:35.604Z,9.85
2022-12-23T06:20:02.427Z,5.72
2022-12-23T06:22:29.189Z,25.98
2022-12-23T06:24:55.691Z,7.03
2022-12-23T06:27:22.291Z,6.95
2022-12-23T06:29:49.203Z,5.47
2022-12-23T06:32:15.784Z,7.10
2022-12-23T06:34:42.366Z,6.40
2022-12-23T06:37:08.967Z,4.20
2022-12-23T06:39:35.567Z,4.40
2022-12-23T06:42:02.145Z,5.60
2022-12-23T06:44:28.654Z,4.72
2022-12-23T06:46:55.201Z,5.95
2022-12-23T06:49:21.783Z,6.55
2022-12-23T06:51:48.296Z,5.65
2022-12-23T06:54:15.057Z,4.22
2022-12-23T06:56:41.686Z,8.30
2022-12-23T06:59:08.240Z,6.78
2022-12-23T07:01:34.903Z,10.80
2022-12-23T07:04:02.190Z,15.77
2022-12-23T07:06:29.250Z,131.23
2022-12-23T07:08:55.848Z,54.33
2022-12-23T07:11:22.441Z,63.97
2022-12-23T07:13:49.153Z,30.30
2022-12-23T07:16:15.789Z,10.93
2022-12-23T07:18:42.397Z,30.55
2022-12-23T07:21:18.778Z,67.07
2022-12-23T07:23:51.284Z,10.30
2022-12-23T07:26:17.793Z,16.42
2022-12-23T07:28:47.828Z,8.48
2022-12-23T07:31:15.513Z,6.75
2022-12-23T07:33:42.607Z,17.52
2022-12-23T07:36:09.578Z,14.82
2022-12-23T07:38:36.318Z,25.77
2022-12-23T07:41:02.924Z,15.98
2022-12-23T07:43:29.456Z,19.58
2022-12-23T07:46:00.419Z,15.18
2022-12-23T07:48:27.490Z,6.72
2022-12-23T07:51:00.729Z,8.88
2022-12-23T07:53:27.489Z,6.07
2022-12-23T07:55:56.578Z,4.05
2022-12-23T07:58:23.990Z,9.25
2022-12-23T08:00:50.728Z,16.40
2022-12-23T08:03:17.637Z,25.80
2022-12-23T08:05:44.399Z,64.40
2022-12-23T08:08:11.023Z,28.70
2022-12-23T08:10:41.399Z,58.17
2022-12-23T08:13:11.121Z,79.22
2022-12-23T08:15:37.673Z,58.20
2022-12-23T08:18:04.327Z,71.13
2022-12-23T08:20:31.430Z,77.63
2022-12-23T08:22:58.011Z,29.05
2022-12-23T08:25:24.544Z,65.25
2022-12-23T08:27:51.198Z,33.72
2022-12-23T08:30:18.986Z,19.85
2022-12-23T08:32:45.562Z,20.98
2022-12-23T08:35:12.237Z,32.17
2022-12-23T08:37:38.801Z,50.80
2022-12-23T08:40:05.817Z,77.95
2022-12-23T08:42:32.435Z,85.15
2022-12-23T08:44:59.052Z,143.80
2022-12-23T08:47:25.631Z,75.93
2022-12-23T08:49:56.430Z,73.88
2022-12-23T08:52:22.966Z,115.30
2022-12-23T08:54:49.551Z,32.15
2022-12-23T08:57:16.140Z,20.55
2022-12-23T08:59:43.015Z,17.10
2022-12-23T09:02:11.598Z,6.63
2022-12-23T09:04:38.903Z,12.57
2022-12-23T09:07:06.019Z,8.02
2022-12-23T09:09:32.739Z,18.45
2022-12-23T09:11:59.239Z,24.30
2022-12-23T09:14:25.865Z,79.47
2022-12-23T09:16:52.587Z,147.35
2022-12-23T09:19:19.199Z,149.07
2022-12-23T09:21:45.758Z,114.80
2022-12-23T09:24:12.329Z,141.05
2022-12-23T09:26:38.884Z,69.55
2022-12-23T09:29:05.467Z,58.10
2022-12-23T09:31:36.853Z,35.90
2022-12-23T09:34:05.157Z,51.50
2022-12-23T09:36:31.788Z,40.00
2022-12-23T09:38:58.823Z,19.30
2022-12-23T09:41:34.610Z,32.28
2022-12-23T09:44:19.529Z,24.52
2022-12-23T09:46:52.577Z,60.00
2022-12-23T09:49:22.212Z,59.67
2022-12-23T09:51:54.103Z,87.00
2022-12-23T09:54:28.937Z,108.53
2022-12-23T09:57:03.870Z,81.80
2022-12-23T10:00:07.120Z,57.97
2022-12-23T10:02:44.444Z,56.78
2022-12-23T10:05:25.132Z,46.75
2022-12-23T10:08:14.556Z,62.70
2022-12-23T10:10:45.450Z,55.85
2022-12-23T10:13:25.400Z,94.85
2022-12-23T10:15:53.910Z,72.72
2022-12-23T10:18:41.596Z,72.32
2022-12-23T10:21:24.692Z,64.53
2022-12-23T10:23:53.968Z,70.10
2022-12-23T10:26:43.759Z,75.97
2022-12-23T10:29:20.064Z,102.75
2022-12-23T10:32:11.544Z,72.85
2022-12-23T10:34:56.451Z,64.32
2022-12-23T10:37:35.854Z,84.05
2022-12-23T10:40:27.462Z,61.40
2022-12-23T10:43:28.115Z,109.97
2022-12-23T10:46:03.886Z,77.45
2022-12-23T10:48:33.206Z,96.10
2022-12-23T10:51:23.308Z,82.00
2022-12-23T10:53:51.995Z,115.85
2022-12-23T10:56:20.247Z,39.85
2022-12-23T10:58:52.751Z,25.73
2022-12-23T11:01:26.711Z,30.73
2022-12-23T11:04:05.904Z,13.00
2022-12-23T11:06:37.600Z,4.68
2022-12-23T11:09:06.328Z,5.57
2022-12-23T11:12:06.949Z,2.15
2022-12-23T11:14:35.825Z,2.58
2022-12-23T11:17:05.410Z,2.20
2022-12-23T11:19:32.178Z,2.80
2022-12-23T11:22:00.913Z,2.25
2022-12-23T11:24:35.451Z,2.65
2022-12-23T11:27:11.572Z,0.88
2022-12-23T11:29:47.537Z,1.67
2022-12-23T11:32:25.309Z,2.45
2022-12-23T11:34:54.030Z,0.80
2022-12-23T11:37:24.298Z,1.13
2022-12-23T11:39:51.163Z,1.08
2022-12-23T11:42:24.493Z,1.25
2022-12-23T11:44:54.843Z,0.70
2022-12-23T11:47:35.753Z,0.70
2022-12-23T11:50:25.033Z,0.70
2022-12-23T11:52:55.565Z,0.50
2022-12-23T11:55:29.859Z,0.93
2022-12-23T11:57:57.002Z,0.70
2022-12-23T12:00:28.974Z,0.80
2022-12-23T12:02:58.958Z,0.60
2022-12-23T12:05:35.127Z,0.70
2022-12-23T12:08:09.083Z,0.63
2022-12-23T12:10:38.565Z,0.60
2022-12-23T12:13:09.258Z,0.50
2022-12-23T12:15:51.005Z,0.65
2022-12-23T12:18:20.084Z,0.65
2022-12-23T12:20:55.415Z,0.50
2022-12-23T12:23:35.417Z,0.45
2022-12-23T12:26:11.683Z,0.47
2022-12-23T12:28:42.248Z,0.50
2022-12-23T12:31:20.468Z,0.93
2022-12-23T12:34:13.237Z,0.30
2022-12-23T12:37:08.027Z,0.32
2022-12-23T12:39:41.645Z,1.63
2022-12-23T12:42:20.352Z,0.40
2022-12-23T12:45:06.755Z,0.90
2022-12-23T12:47:58.394Z,0.30
2022-12-23T12:50:42.426Z,0.20
2022-12-23T12:53:18.676Z,0.30
2022-12-23T12:55:51.215Z,0.38
2022-12-23T12:58:22.864Z,0.50
2022-12-23T13:01:14.945Z,0.30
2022-12-23T13:04:02.752Z,0.20
2022-12-23T13:06:38.087Z,0.63
2022-12-23T13:09:31.457Z,0.40
2022-12-23T13:12:48.984Z,0.95
2022-12-23T13:15:28.252Z,0.40
2022-12-23T13:18:03.990Z,0.40
2022-12-23T13:20:33.915Z,0.40
2022-12-23T13:23:42.818Z,0.40
2022-12-23T13:26:27.681Z,0.32
2022-12-23T13:29:12.767Z,0.82
2022-12-23T13:31:55.088Z,0.20
2022-12-23T13:34:45.534Z,0.40
2022-12-23T13:37:22.335Z,0.43
2022-12-23T13:40:12.094Z,0.50
2022-12-23T13:42:45.978Z,0.50
2022-12-23T13:45:16.791Z,0.45
2022-12-23T13:48:14.860Z,0.55
2022-12-23T13:50:45.791Z,0.82
2022-12-23T13:53:40.171Z,0.35
2022-12-23T13:56:17.258Z,0.57
2022-12-23T13:58:49.196Z,0.47
2022-12-23T14:01:15.757Z,0.35
2022-12-23T14:03:42.699Z,0.50
2022-12-23T14:06:24.476Z,0.30
2022-12-23T14:08:52.715Z,0.30
2022-12-23T14:11:21.736Z,0.30
2022-12-23T14:13:51.105Z,1.45
2022-12-23T14:16:26.931Z,0.40
2022-12-23T14:19:09.179Z,0.95
2022-12-23T14:21:57.158Z,0.30
2022-12-23T14:24:43.026Z,1.55
2022-12-23T14:27:40.361Z,0.28
2022-12-23T14:30:21.993Z,0.20
2022-12-23T14:33:00.249Z,0.30
2022-12-23T14:35:46.754Z,1.23
2022-12-23T14:38:15.996Z,0.93
2022-12-23T14:40:42.548Z,1.55
2022-12-23T14:43:47.619Z,0.40
2022-12-23T14:46:36.952Z,0.50
2022-12-23T14:49:36.967Z,0.40
2022-12-23T14:51:51.149Z,1.25
2022-12-23T14:54:18.764Z,0.40
2022-12-23T14:57:05.446Z,0.35
2022-12-23T15:00:00.215Z,0.30
2022-12-23T15:02:35.941Z,0.30
2022-12-23T15:05:02.847Z,0.30
2022-12-23T15:07:43.065Z,0.40
2022-12-23T15:10:21.804Z,0.52
2022-12-23T15:12:57.744Z,0.40
2022-12-23T15:15:27.687Z,0.60
2022-12-23T15:18:04.854Z,0.50
2022-12-23T15:20:31.861Z,0.85
2022-12-23T15:23:02.378Z,0.73
2022-12-23T15:25:34.935Z,0.90
2022-12-23T15:28:03.626Z,0.85
2022-12-23T15:30:46.168Z,0.65
2022-12-23T15:34:00.819Z,0.70
2022-12-23T15:36:10.484Z,0.70
2022-12-23T15:38:40.728Z,0.85
2022-12-23T15:41:18.933Z,0.60
2022-12-23T15:43:45.641Z,1.13
2022-12-23T15:46:23.629Z,1.42
2022-12-23T15:48:53.876Z,0.95
2022-12-23T15:51:57.921Z,2.65
2022-12-23T15:54:31.489Z,1.23
2022-12-23T15:57:00.276Z,2.65
2022-12-23T15:59:38.778Z,11.98
2022-12-23T16:05:26.688Z,4.55
2022-12-23T16:08:10.630Z,3.47
2022-12-23T16:10:38.161Z,1.85
2022-12-23T16:13:04.767Z,2.97
2022-12-23T16:15:32.978Z,5.60
2022-12-23T16:18:25.469Z,4.40
2022-12-23T16:20:53.872Z,2.47
2022-12-23T16:23:21.732Z,6.53
2022-12-23T16:25:52.823Z,7.07
2022-12-23T16:28:24.343Z,8.07
2022-12-23T16:30:57.528Z,3.08
2022-12-23T16:33:42.524Z,6.47
2022-12-23T16:36:19.126Z,6.07
2022-12-23T16:38:46.700Z,7.43
2022-12-23T16:41:13.381Z,6.07
2022-12-23T16:43:43.277Z,5.55
2022-12-23T16:46:17.484Z,8.48
2022-12-23T16:48:55.602Z,4.30
2022-12-23T16:51:23.552Z,9.15
2022-12-23T16:53:52.560Z,7.82
2022-12-23T16:56:22.241Z,9.38
2022-12-23T16:58:48.853Z,8.93
2022-12-23T17:01:24.856Z,11.30
2022-12-23T17:03:52.102Z,7.20
2022-12-23T17:06:19.828Z,9.15
2022-12-23T17:08:46.633Z,7.47
2022-12-23T17:11:35.030Z,6.65
2022-12-23T17:14:04.956Z,10.93
2022-12-23T17:16:34.593Z,27.70
2022-12-23T17:19:01.223Z,32.13
2022-12-23T17:21:33.867Z,22.55
2022-12-23T17:24:29.796Z,14.93
2022-12-23T17:26:59.469Z,16.45
2022-12-23T17:29:26.092Z,24.02
2022-12-23T17:31:53.113Z,24.73
2022-12-23T17:34:22.034Z,17.65
2022-12-23T17:36:50.717Z,22.02
2022-12-23T17:39:19.254Z,14.95
2022-12-23T17:41:46.316Z,8.82
2022-12-23T17:44:17.306Z,12.10
2022-12-23T17:46:46.085Z,11.27
2022-12-23T17:49:12.907Z,8.68
2022-12-23T17:51:40.493Z,13.38
2022-12-23T17:54:07.522Z,16.20
2022-12-23T17:56:34.168Z,13.23
2022-12-23T17:59:00.836Z,15.95
2022-12-23T18:01:30.444Z,15.07
2022-12-23T18:03:58.897Z,9.73
2022-12-23T18:06:27.453Z,14.90
2022-12-23T18:08:54.398Z,14.75
2022-12-23T18:11:32.491Z,13.73
2022-12-23T18:13:59.780Z,15.13
2022-12-23T18:16:26.575Z,14.68
2022-12-23T18:18:53.158Z,15.05
2022-12-23T18:21:25.568Z,16.85
2022-12-23T18:23:54.855Z,19.08
2022-12-23T18:26:21.435Z,15.63
2022-12-23T18:28:47.977Z,10.30
2022-12-23T18:31:17.267Z,13.52
2022-12-23T18:33:44.907Z,11.30
2022-12-23T18:36:33.315Z,16.70
2022-12-23T18:39:00.185Z,13.75
2022-12-23T18:41:27.568Z,16.45
2022-12-23T18:43:54.704Z,32.42
2022-12-23T18:46:21.528Z,15.70
2022-12-23T18:48:48.785Z,16.15
2022-12-23T18:51:17.238Z,14.55
2022-12-23T18:53:44.253Z,17.73
2022-12-23T18:56:16.182Z,12.05
2022-12-23T18:58:42.847Z,15.60
2022-12-23T19:01:13.673Z,18.20
2022-12-23T19:03:41.088Z,18.27
2022-12-23T19:06:09.151Z,12.57
2022-12-23T19:08:37.249Z,13.30
2022-12-23T19:11:13.850Z,15.00
2022-12-23T19:13:40.574Z,17.38
2022-12-23T19:16:07.294Z,36.00
2022-12-23T19:18:33.887Z,21.63
2022-12-23T19:21:04.665Z,25.45
2022-12-23T19:23:31.407Z,10.48
2022-12-23T19:25:57.981Z,20.33
2022-12-23T19:28:24.645Z,13.15
2022-12-23T19:30:51.566Z,16.48
2022-12-23T19:33:21.680Z,53.42
2022-12-23T19:35:49.503Z,14.18
2022-12-23T19:38:16.048Z,13.43
2022-12-23T19:40:42.632Z,15.52
2022-12-23T19:43:09.180Z,14.13
2022-12-23T19:45:35.689Z,17.05
2022-12-23T19:48:02.503Z,18.80
2022-12-23T19:50:29.193Z,16.08
2022-12-23T19:52:56.435Z,16.80
2022-12-23T19:55:24.000Z,20.42
2022-12-23T19:57:51.759Z,16.48
2022-12-23T20:00:18.400Z,14.55
2022-12-23T20:02:44.987Z,13.52
2022-12-23T20:05:11.598Z,20.10
2022-12-23T20:07:38.188Z,15.98
2022-12-23T20:10:06.024Z,20.45
2022-12-23T20:12:32.722Z,14.07
2022-12-23T20:14:59.694Z,20.83
2022-12-23T20:17:26.298Z,25.33
2022-12-23T20:19:52.818Z,17.23
2022-12-23T20:22:19.330Z,18.83
2022-12-23T20:24:45.904Z,18.73
2022-12-23T20:27:15.602Z,19.58
2022-12-23T20:29:42.718Z,16.60
2022-12-23T20:32:09.360Z,13.70
2022-12-23T20:34:39.520Z,18.45
2022-12-23T20:37:07.065Z,22.17
2022-12-23T20:39:33.742Z,14.55
2022-12-23T20:42:00.267Z,15.60
2022-12-23T20:44:35.984Z,16.95
2022-12-23T20:47:05.540Z,16.38
2022-12-23T20:49:32.339Z,18.67
2022-12-23T20:51:58.926Z,12.38
2022-12-23T20:54:32.223Z,11.90
2022-12-23T20:56:59.588Z,19.30
2022-12-23T20:59:26.159Z,18.08
2022-12-23T21:01:52.890Z,17.35
2022-12-23T21:04:20.437Z,15.18
2022-12-23T21:06:47.084Z,15.40
2022-12-23T21:09:15.624Z,12.48
2022-12-23T21:11:44.252Z,9.57
2022-12-23T21:14:11.922Z,9.13
2022-12-23T21:16:39.326Z,16.40
2022-12-23T21:19:08.229Z,11.23
2022-12-23T21:21:34.815Z,16.48
2022-12-23T21:24:04.638Z,19.25
2022-12-23T21:26:33.168Z,14.27
2022-12-23T21:29:01.300Z,11.45
2022-12-23T21:31:29.467Z,15.75
2022-12-23T21:33:56.498Z,13.90
2022-12-23T21:36:25.937Z,19.05
2022-12-23T21:38:52.665Z,19.88
2022-12-23T21:41:22.246Z,18.00
2022-12-23T21:43:49.419Z,20.30
2022-12-23T21:46:18.846Z,19.50
2022-12-23T21:48:46.065Z,19.55
2022-12-23T21:51:18.998Z,15.20
2022-12-23T21:53:47.158Z,17.02
2022-12-23T21:56:17.193Z,19.60
2022-12-23T21:58:44.906Z,15.10
2022-12-23T22:01:14.550Z,14.35
2022-12-23T22:03:42.044Z,20.38
2022-12-23T22:06:11.866Z,23.33
2022-12-23T22:08:39.214Z,22.00
2022-12-23T22:11:07.588Z,14.43
2022-12-23T22:13:34.151Z,13.25
2022-12-23T22:16:00.755Z,20.08
2022-12-23T22:18:27.337Z,14.40
2022-12-23T22:20:54.105Z,24.50
2022-12-23T22:23:20.644Z,17.88
2022-12-23T22:25:54.560Z,16.08
2022-12-23T22:28:21.852Z,21.48
2022-12-23T22:30:48.580Z,17.50
2022-12-23T22:33:16.165Z,20.80
2022-12-23T22:35:43.057Z,17.55
2022-12-23T22:38:09.594Z,18.52
2022-12-23T22:40:36.232Z,25.38
2022-12-23T22:43:02.852Z,18.13
2022-12-23T22:45:29.515Z,18.73
2022-12-23T22:47:56.099Z,20.90
2022-12-23T22:50:22.702Z,15.25
2022-12-23T22:52:49.423Z,20.27
2022-12-23T22:55:16.022Z,15.50
2022-12-23T22:57:42.534Z,17.90
2022-12-23T23:00:12.563Z,17.15
2022-12-23T23:02:39.425Z,26.35
2022-12-23T23:05:12.430Z,19.02
2022-12-23T23:07:39.663Z,28.27
2022-12-23T23:10:07.296Z,16.52
2022-12-23T23:12:33.967Z,17.27
2022-12-23T23:15:00.520Z,14.27
2022-12-23T23:17:28.404Z,22.45
2022-12-23T23:19:55.138Z,17.98
2022-12-23T23:22:23.342Z,18.20
2022-12-23T23:24:50.978Z,22.20
2022-12-23T23:27:17.964Z,17.67
2022-12-23T23:29:44.611Z,17.05
2022-12-23T23:32:11.631Z,21.48
2022-12-23T23:34:38.227Z,20.15
2022-12-23T23:37:05.476Z,22.67
2022-12-23T23:39:32.027Z,26.13
2022-12-23T23:41:58.864Z,17.80
2022-12-23T23:44:25.510Z,19.27
2022-12-23T23:46:52.075Z,19.17
2022-12-23T23:49:18.663Z,24.08
2022-12-23T23:51:45.283Z,20.17
2022-12-23T23:54:11.976Z,20.88
2022-12-23T23:56:39.589Z,26.58
2022-12-23T23:59:07.875Z,17.67
